sensor_id;sensor_type;location;lat;lon;timestamp;pressure;altitude;pressure_sealevel;temperature;humidity
10720;BME280;5411;58.386;15.560;2023-02-01T00:01:44;98080.50;;;2.64;100.00
10720;BME280;5411;58.386;15.560;2023-02-01T00:04:12;98082.94;;;2.65;100.00
10720;BME280;5411;58.386;15.560;2023-02-01T00:06:40;98083.09;;;2.70;100.00
10720;BME280;5411;58.386;15.560;2023-02-01T00:09:10;98079.44;;;2.71;100.00
10720;BME280;5411;58.386;15.560;2023-02-01T00:11:40;98080.06;;;2.73;100.00
10720;BME280;5411;58.386;15.560;2023-02-01T00:14:08;98084.94;;;2.70;100.00
10720;BME280;5411;58.386;15.560;2023-02-01T00:16:37;98084.34;;;2.68;100.00
10720;BME280;5411;58.386;15.560;2023-02-01T00:19:09;98089.25;;;2.64;100.00
10720;BME280;5411;58.386;15.560;2023-02-01T00:21:38;98089.03;;;2.59;100.00
10720;BME280;5411;58.386;15.560;2023-02-01T00:24:07;98089.66;;;2.55;100.00
10720;BME280;5411;58.386;15.560;2023-02-01T00:26:40;98097.78;;;2.53;100.00
10720;BME280;5411;58.386;15.560;2023-02-01T00:29:12;98096.59;;;2.49;100.00
10720;BME280;5411;58.386;15.560;2023-02-01T00:31:41;98089.69;;;2.41;100.00
10720;BME280;5411;58.386;15.560;2023-02-01T00:34:11;98088.50;;;2.37;100.00
10720;BME280;5411;58.386;15.560;2023-02-01T00:36:40;98087.28;;;2.33;100.00
10720;BME280;5411;58.386;15.560;2023-02-01T00:39:09;98092.56;;;2.33;100.00
10720;BME280;5411;58.386;15.560;2023-02-01T00:41:39;98084.25;;;2.30;100.00
10720;BME280;5411;58.386;15.560;2023-02-01T00:44:08;98082.41;;;2.30;100.00
10720;BME280;5411;58.386;15.560;2023-02-01T00:46:36;98086.06;;;2.29;100.00
10720;BME280;5411;58.386;15.560;2023-02-01T00:49:05;98092.78;;;2.32;100.00
10720;BME280;5411;58.386;15.560;2023-02-01T00:51:35;98087.69;;;2.30;100.00
10720;BME280;5411;58.386;15.560;2023-02-01T00:54:04;98082.41;;;2.30;100.00
10720;BME280;5411;58.386;15.560;2023-02-01T00:56:32;98075.31;;;2.31;100.00
10720;BME280;5411;58.386;15.560;2023-02-01T00:59:02;98083.84;;;2.33;100.00
10720;BME280;5411;58.386;15.560;2023-02-01T01:01:30;98078.34;;;2.34;100.00
10720;BME280;5411;58.386;15.560;2023-02-01T01:03:59;98074.72;;;2.35;100.00
10720;BME280;5411;58.386;15.560;2023-02-01T01:06:32;98080.59;;;2.37;100.00
10720;BME280;5411;58.386;15.560;2023-02-01T01:09:02;98082.22;;;2.38;100.00
10720;BME280;5411;58.386;15.560;2023-02-01T01:11:46;98086.47;;;2.39;100.00
10720;BME280;5411;58.386;15.560;2023-02-01T01:14:15;98091.75;;;2.39;100.00
10720;BME280;5411;58.386;15.560;2023-02-01T01:16:44;98090.94;;;2.39;100.00
10720;BME280;5411;58.386;15.560;2023-02-01T01:19:12;98083.22;;;2.37;100.00
10720;BME280;5411;58.386;15.560;2023-02-01T01:21:41;98095.81;;;2.35;100.00
10720;BME280;5411;58.386;15.560;2023-02-01T01:24:09;98095.41;;;2.32;100.00
10720;BME280;5411;58.386;15.560;2023-02-01T01:26:38;98091.16;;;2.31;100.00
10720;BME280;5411;58.386;15.560;2023-02-01T01:29:08;98101.91;;;2.29;100.00
10720;BME280;5411;58.386;15.560;2023-02-01T01:31:40;98087.94;;;2.22;100.00
10720;BME280;5411;58.386;15.560;2023-02-01T01:34:08;98076.97;;;2.19;100.00
10720;BME280;5411;58.386;15.560;2023-02-01T01:36:36;98082.03;;;2.20;100.00
10720;BME280;5411;58.386;15.560;2023-02-01T01:39:05;98087.50;;;2.19;100.00
10720;BME280;5411;58.386;15.560;2023-02-01T01:41:34;98081.03;;;2.21;100.00
10720;BME280;5411;58.386;15.560;2023-02-01T01:44:04;98082.00;;;2.27;100.00
10720;BME280;5411;58.386;15.560;2023-02-01T01:46:36;98078.34;;;2.28;100.00
10720;BME280;5411;58.386;15.560;2023-02-01T01:49:10;98074.91;;;2.27;100.00
10720;BME280;5411;58.386;15.560;2023-02-01T01:51:42;98080.59;;;2.31;100.00
10720;BME280;5411;58.386;15.560;2023-02-01T01:54:16;98083.84;;;2.33;100.00
10720;BME280;5411;58.386;15.560;2023-02-01T01:56:49;98078.56;;;2.33;100.00
10720;BME280;5411;58.386;15.560;2023-02-01T01:59:19;98074.50;;;2.37;100.00
10720;BME280;5411;58.386;15.560;2023-02-01T02:01:49;98076.13;;;2.38;100.00
10720;BME280;5411;58.386;15.560;2023-02-01T02:04:19;98079.94;;;2.42;100.00
10720;BME280;5411;58.386;15.560;2023-02-01T02:06:51;98070.63;;;2.46;100.00
10720;BME280;5411;58.386;15.560;2023-02-01T02:09:23;98070.41;;;2.47;100.00
10720;BME280;5411;58.386;15.560;2023-02-01T02:11:52;98071.22;;;2.48;100.00
10720;BME280;5411;58.386;15.560;2023-02-01T02:14:21;98075.69;;;2.47;100.00
10720;BME280;5411;58.386;15.560;2023-02-01T02:17:01;98066.91;;;2.54;100.00
10720;BME280;5411;58.386;15.560;2023-02-01T02:23:18;98058.19;;;2.60;100.00
10720;BME280;5411;58.386;15.560;2023-02-01T02:26:20;98051.69;;;2.62;100.00
10720;BME280;5411;58.386;15.560;2023-02-01T02:29:22;98051.84;;;2.67;100.00
10720;BME280;5411;58.386;15.560;2023-02-01T02:32:09;98054.06;;;2.70;100.00
10720;BME280;5411;58.386;15.560;2023-02-01T02:34:45;98052.66;;;2.74;100.00
10720;BME280;5411;58.386;15.560;2023-02-01T02:37:31;98043.72;;;2.75;100.00
10720;BME280;5411;58.386;15.560;2023-02-01T02:40:05;98042.47;;;2.78;100.00
10720;BME280;5411;58.386;15.560;2023-02-01T02:42:42;98046.75;;;2.79;100.00
10720;BME280;5411;58.386;15.560;2023-02-01T02:45:41;98044.09;;;2.79;100.00
10720;BME280;5411;58.386;15.560;2023-02-01T02:48:53;98042.47;;;2.78;100.00
10720;BME280;5411;58.386;15.560;2023-02-01T02:51:28;98053.41;;;2.81;100.00
10720;BME280;5411;58.386;15.560;2023-02-01T02:54:18;98054.88;;;2.77;100.00
10720;BME280;5411;58.386;15.560;2023-02-01T02:57:07;98059.56;;;2.75;100.00
10720;BME280;5411;58.386;15.560;2023-02-01T02:59:57;98076.22;;;2.69;100.00
10720;BME280;5411;58.386;15.560;2023-02-01T03:02:47;98069.16;;;2.63;100.00
10720;BME280;5411;58.386;15.560;2023-02-01T03:05:34;98079.28;;;2.60;100.00
10720;BME280;5411;58.386;15.560;2023-02-01T03:08:10;98079.72;;;2.57;100.00
10720;BME280;5411;58.386;15.560;2023-02-01T03:10:49;98082.56;;;2.55;100.00
10720;BME280;5411;58.386;15.560;2023-02-01T03:13:28;98070.56;;;2.59;100.00
10720;BME280;5411;58.386;15.560;2023-02-01T03:16:01;98077.25;;;2.62;100.00
10720;BME280;5411;58.386;15.560;2023-02-01T03:18:36;98085.16;;;2.68;100.00
10720;BME280;5411;58.386;15.560;2023-02-01T03:21:12;98073.56;;;2.69;100.00
10720;BME280;5411;58.386;15.560;2023-02-01T03:23:44;98083.09;;;2.70;100.00
10720;BME280;5411;58.386;15.560;2023-02-01T03:26:15;98075.19;;;2.70;100.00
10720;BME280;5411;58.386;15.560;2023-02-01T03:28:48;98078.25;;;2.67;100.00
10720;BME280;5411;58.386;15.560;2023-02-01T03:31:41;98082.50;;;2.68;100.00
10720;BME280;5411;58.386;15.560;2023-02-01T03:34:11;98080.88;;;2.67;100.00
10720;BME280;5411;58.386;15.560;2023-02-01T03:36:45;98079.28;;;2.66;100.00
10720;BME280;5411;58.386;15.560;2023-02-01T03:39:22;98077.88;;;2.64;100.00
10720;BME280;5411;58.386;15.560;2023-02-01T03:41:56;98072.97;;;2.67;100.00
10720;BME280;5411;58.386;15.560;2023-02-01T03:44:29;98083.09;;;2.70;100.00
10720;BME280;5411;58.386;15.560;2023-02-01T03:47:08;98078.66;;;2.71;100.00
10720;BME280;5411;58.386;15.560;2023-02-01T03:49:42;98084.31;;;2.74;100.00
10720;BME280;5411;58.386;15.560;2023-02-01T03:52:13;98085.75;;;2.77;100.00
10720;BME280;5411;58.386;15.560;2023-02-01T03:54:49;98086.56;;;2.77;100.00
10720;BME280;5411;58.386;15.560;2023-02-01T03:57:25;98083.91;;;2.77;100.00
10720;BME280;5411;58.386;15.560;2023-02-01T04:00:04;98080.25;;;2.78;100.00
10720;BME280;5411;58.386;15.560;2023-02-01T04:02:33;98082.44;;;2.81;100.00
10720;BME280;5411;58.386;15.560;2023-02-01T04:05:02;98074.94;;;2.85;100.00
10720;BME280;5411;58.386;15.560;2023-02-01T04:07:31;98077.56;;;2.85;100.00
10720;BME280;5411;58.386;15.560;2023-02-01T04:10:00;98077.16;;;2.88;100.00
10720;BME280;5411;58.386;15.560;2023-02-01T04:12:30;98071.63;;;2.96;100.00
10720;BME280;5411;58.386;15.560;2023-02-01T04:14:58;98089.06;;;3.04;100.00
10720;BME280;5411;58.386;15.560;2023-02-01T04:17:26;98073.59;;;3.07;100.00
10720;BME280;5411;58.386;15.560;2023-02-01T04:19:55;98079.47;;;3.09;100.00
10720;BME280;5411;58.386;15.560;2023-02-01T04:22:23;98075.41;;;3.13;100.00
10720;BME280;5411;58.386;15.560;2023-02-01T04:24:54;98082.09;;;3.16;100.00
10720;BME280;5411;58.386;15.560;2023-02-01T04:27:24;98077.41;;;3.18;100.00
10720;BME280;5411;58.386;15.560;2023-02-01T04:29:52;98075.94;;;3.22;100.00
10720;BME280;5411;58.386;15.560;2023-02-01T04:32:23;98069.66;;;3.23;100.00
10720;BME280;5411;58.386;15.560;2023-02-01T04:34:55;98069.03;;;3.21;100.00
10720;BME280;5411;58.386;15.560;2023-02-01T04:37:26;98068.69;;;3.17;100.00
10720;BME280;5411;58.386;15.560;2023-02-01T04:39:55;98066.06;;;3.11;100.00
10720;BME280;5411;58.386;15.560;2023-02-01T04:42:25;98076.22;;;3.07;100.00
10720;BME280;5411;58.386;15.560;2023-02-01T04:44:54;98075.47;;;3.00;100.00
10720;BME280;5411;58.386;15.560;2023-02-01T04:47:22;98074.25;;;2.96;100.00
10720;BME280;5411;58.386;15.560;2023-02-01T04:49:57;98077.16;;;2.88;100.00
10720;BME280;5411;58.386;15.560;2023-02-01T04:52:26;98072.69;;;2.82;100.00
10720;BME280;5411;58.386;15.560;2023-02-01T04:54:55;98073.16;;;2.79;100.00
10720;BME280;5411;58.386;15.560;2023-02-01T04:57:26;98073.72;;;2.81;100.00
10720;BME280;5411;58.386;15.560;2023-02-01T04:59:55;98075.56;;;2.80;100.00
10720;BME280;5411;58.386;15.560;2023-02-01T05:02:24;98077.38;;;2.80;100.00
10720;BME280;5411;58.386;15.560;2023-02-01T05:04:52;98077.97;;;2.82;100.00
10720;BME280;5411;58.386;15.560;2023-02-01T05:07:23;98081.03;;;2.85;100.00
10720;BME280;5411;58.386;15.560;2023-02-01T05:09:52;98091.97;;;2.89;100.00
10720;BME280;5411;58.386;15.560;2023-02-01T05:12:20;98090.97;;;2.90;100.00
10720;BME280;5411;58.386;15.560;2023-02-01T05:15:19;98093.97;;;2.94;100.00
10720;BME280;5411;58.386;15.560;2023-02-01T05:17:47;98098.25;;;2.95;100.00
10720;BME280;5411;58.386;15.560;2023-02-01T05:20:16;98092.16;;;2.94;100.00
10720;BME280;5411;58.386;15.560;2023-02-01T05:22:45;98101.88;;;3.00;100.00
10720;BME280;5411;58.386;15.560;2023-02-01T05:25:13;98102.69;;;3.01;100.00
10720;BME280;5411;58.386;15.560;2023-02-01T05:27:42;98105.34;;;3.01;100.00
10720;BME280;5411;58.386;15.560;2023-02-01T05:30:11;98104.09;;;3.03;100.00
10720;BME280;5411;58.386;15.560;2023-02-01T05:32:43;98105.28;;;3.07;100.00
10720;BME280;5411;58.386;15.560;2023-02-01T05:35:11;98110.38;;;3.09;100.00
10720;BME280;5411;58.386;15.560;2023-02-01T05:37:40;98105.09;;;3.09;100.00
10720;BME280;5411;58.386;15.560;2023-02-01T05:40:11;98098.19;;;3.08;100.00
10720;BME280;5411;58.386;15.560;2023-02-01T05:42:42;98091.06;;;3.08;100.00
10720;BME280;5411;58.386;15.560;2023-02-01T05:45:10;98099.59;;;3.10;100.00
10720;BME280;5411;58.386;15.560;2023-02-01T05:47:42;98092.47;;;3.11;100.00
10720;BME280;5411;58.386;15.560;2023-02-01T05:50:11;98095.94;;;3.11;100.00
10720;BME280;5411;58.386;15.560;2023-02-01T05:52:40;98094.31;;;3.10;100.00
10720;BME280;5411;58.386;15.560;2023-02-01T05:55:09;98097.16;;;3.09;100.00
10720;BME280;5411;58.386;15.560;2023-02-01T05:57:37;98096.13;;;3.10;100.00
10720;BME280;5411;58.386;15.560;2023-02-01T06:00:07;98099.78;;;3.09;100.00
10720;BME280;5411;58.386;15.560;2023-02-01T06:02:35;98098.19;;;3.08;100.00
10720;BME280;5411;58.386;15.560;2023-02-01T06:05:07;98086.63;;;3.02;100.00
10720;BME280;5411;58.386;15.560;2023-02-01T06:07:40;98099.44;;;3.05;100.00
10720;BME280;5411;58.386;15.560;2023-02-01T06:10:10;98102.06;;;3.05;100.00
10720;BME280;5411;58.386;15.560;2023-02-01T06:12:38;98108.59;;;3.03;100.00
10720;BME280;5411;58.386;15.560;2023-02-01T06:15:10;98104.94;;;2.97;100.00
10720;BME280;5411;58.386;15.560;2023-02-01T06:17:38;98106.97;;;2.95;100.00
10720;BME280;5411;58.386;15.560;2023-02-01T06:23:36;98107.63;;;2.91;100.00
10720;BME280;5411;58.386;15.560;2023-02-01T06:26:06;98114.28;;;2.93;100.00
10720;BME280;5411;58.386;15.560;2023-02-01T06:28:37;98115.34;;;2.92;100.00
10720;BME280;5411;58.386;15.560;2023-02-01T06:31:06;98126.91;;;2.91;100.00
10720;BME280;5411;58.386;15.560;2023-02-01T06:33:35;98125.28;;;2.90;100.00
10720;BME280;5411;58.386;15.560;2023-02-01T06:36:05;98129.97;;;2.88;100.00
10720;BME280;5411;58.386;15.560;2023-02-01T06:38:35;98120.03;;;2.83;100.00
10720;BME280;5411;58.386;15.560;2023-02-01T06:41:05;98126.94;;;2.84;100.00
10720;BME280;5411;58.386;15.560;2023-02-01T06:43:37;98123.28;;;2.85;100.00
10720;BME280;5411;58.386;15.560;2023-02-01T06:46:06;98122.84;;;2.89;100.00
10720;BME280;5411;58.386;15.560;2023-02-01T06:48:35;98126.47;;;2.94;100.00
10720;BME280;5411;58.386;15.560;2023-02-01T06:51:04;98132.16;;;2.98;100.00
10720;BME280;5411;58.386;15.560;2023-02-01T06:53:32;98130.53;;;2.97;100.00
10720;BME280;5411;58.386;15.560;2023-02-01T06:56:03;98126.25;;;3.02;100.00
10720;BME280;5411;58.386;15.560;2023-02-01T06:58:32;98138.81;;;3.07;100.00
10720;BME280;5411;58.386;15.560;2023-02-01T07:01:05;98132.50;;;3.08;100.00
10720;BME280;5411;58.386;15.560;2023-02-01T07:03:34;98129.28;;;3.06;100.00
10720;BME280;5411;58.386;15.560;2023-02-01T07:06:02;98135.75;;;3.10;100.00
10720;BME280;5411;58.386;15.560;2023-02-01T07:08:33;98134.53;;;3.12;100.00
10720;BME280;5411;58.386;15.560;2023-02-01T07:11:04;98131.69;;;3.14;100.00
10720;BME280;5411;58.386;15.560;2023-02-01T07:13:33;98129.84;;;3.14;100.00
10720;BME280;5411;58.386;15.560;2023-02-01T07:16:07;98132.09;;;3.17;100.00
10720;BME280;5411;58.386;15.560;2023-02-01T07:18:38;98131.63;;;3.20;100.00
10720;BME280;5411;58.386;15.560;2023-02-01T07:21:07;98133.66;;;3.25;100.00
10720;BME280;5411;58.386;15.560;2023-02-01T07:23:38;98128.34;;;3.32;100.00
10720;BME280;5411;58.386;15.560;2023-02-01T07:26:10;98124.84;;;3.38;100.00
10720;BME280;5411;58.386;15.560;2023-02-01T07:28:40;98129.91;;;3.46;100.00
10720;BME280;5411;58.386;15.560;2023-02-01T07:31:10;98132.28;;;3.54;100.00
10720;BME280;5411;58.386;15.560;2023-02-01T07:33:40;98138.53;;;3.59;100.00
10720;BME280;5411;58.386;15.560;2023-02-01T07:36:13;98136.88;;;3.65;100.00
10720;BME280;5411;58.386;15.560;2023-02-01T07:38:42;98136.25;;;3.70;100.00
10720;BME280;5411;58.386;15.560;2023-02-01T07:41:12;98139.09;;;3.68;100.00
10720;BME280;5411;58.386;15.560;2023-02-01T07:43:40;98133.22;;;3.66;100.00
10720;BME280;5411;58.386;15.560;2023-02-01T07:46:11;98135.44;;;3.69;100.00
10720;BME280;5411;58.386;15.560;2023-02-01T07:48:42;98133.81;;;3.68;100.00
10720;BME280;5411;58.386;15.560;2023-02-01T07:51:12;98140.13;;;3.67;100.00
10720;BME280;5411;58.386;15.560;2023-02-01T07:53:41;98144.41;;;3.68;100.00
10720;BME280;5411;58.386;15.560;2023-02-01T07:56:16;98139.09;;;3.68;100.00
10720;BME280;5411;58.386;15.560;2023-02-01T07:58:47;98138.69;;;3.71;100.00
10720;BME280;5411;58.386;15.560;2023-02-01T08:01:17;98132.94;;;3.74;100.00
10720;BME280;5411;58.386;15.560;2023-02-01T08:03:47;98135.97;;;3.78;100.00
10720;BME280;5411;58.386;15.560;2023-02-01T08:06:16;98141.06;;;3.79;100.00
10720;BME280;5411;58.386;15.560;2023-02-01T08:08:46;98146.53;;;3.84;100.00
10720;BME280;5411;58.386;15.560;2023-02-01T08:11:17;98142.84;;;3.85;100.00
10720;BME280;5411;58.386;15.560;2023-02-01T08:13:46;98141.03;;;3.86;100.00
10720;BME280;5411;58.386;15.560;2023-02-01T08:16:17;98143.22;;;3.89;100.00
10720;BME280;5411;58.386;15.560;2023-02-01T08:18:46;98147.28;;;3.91;100.00
10720;BME280;5411;58.386;15.560;2023-02-01T08:21:16;98145.44;;;3.92;100.00
10720;BME280;5411;58.386;15.560;2023-02-01T08:23:46;98148.47;;;3.96;100.00
10720;BME280;5411;58.386;15.560;2023-02-01T08:26:18;98144.81;;;3.97;100.00
10720;BME280;5411;58.386;15.560;2023-02-01T08:28:49;98142.75;;;3.99;100.00
10720;BME280;5411;58.386;15.560;2023-02-01T08:31:19;98152.69;;;4.03;100.00
10720;BME280;5411;58.386;15.560;2023-02-01T08:33:54;98154.09;;;4.06;100.00
10720;BME280;5411;58.386;15.560;2023-02-01T08:36:24;98156.09;;;4.10;100.00
10720;BME280;5411;58.386;15.560;2023-02-01T08:38:54;98150.59;;;4.12;100.00
10720;BME280;5411;58.386;15.560;2023-02-01T08:41:26;98149.91;;;4.16;100.00
10720;BME280;5411;58.386;15.560;2023-02-01T08:43:56;98157.84;;;4.16;100.00
10720;BME280;5411;58.386;15.560;2023-02-01T08:46:26;98158.25;;;4.20;100.00
10720;BME280;5411;58.386;15.560;2023-02-01T08:48:55;98160.69;;;4.21;100.00
10720;BME280;5411;58.386;15.560;2023-02-01T08:51:23;98161.28;;;4.23;100.00
10720;BME280;5411;58.386;15.560;2023-02-01T08:53:52;98159.44;;;4.24;100.00
10720;BME280;5411;58.386;15.560;2023-02-01T08:56:20;98158.19;;;4.26;100.00
10720;BME280;5411;58.386;15.560;2023-02-01T08:58:50;98156.13;;;4.28;100.00
10720;BME280;5411;58.386;15.560;2023-02-01T09:01:18;98152.44;;;4.29;100.00
10720;BME280;5411;58.386;15.560;2023-02-01T09:03:47;98156.50;;;4.32;100.00
10720;BME280;5411;58.386;15.560;2023-02-01T09:06:15;98153.06;;;4.32;100.00
10720;BME280;5411;58.386;15.560;2023-02-01T09:08:44;98149.16;;;4.34;100.00
10720;BME280;5411;58.386;15.560;2023-02-01T09:11:15;98151.59;;;4.36;100.00
10720;BME280;5411;58.386;15.560;2023-02-01T09:13:44;98149.97;;;4.35;100.00
10720;BME280;5411;58.386;15.560;2023-02-01T09:16:14;98148.94;;;4.36;100.00
10720;BME280;5411;58.386;15.560;2023-02-01T09:18:43;98151.00;;;4.34;100.00
10720;BME280;5411;58.386;15.560;2023-02-01T09:21:27;98147.75;;;4.32;100.00
10720;BME280;5411;58.386;15.560;2023-02-01T09:23:56;98145.91;;;4.32;100.00
10720;BME280;5411;58.386;15.560;2023-02-01T09:26:24;98142.03;;;4.35;100.00
10720;BME280;5411;58.386;15.560;2023-02-01T09:28:58;98151.16;;;4.39;100.00
10720;BME280;5411;58.386;15.560;2023-02-01T09:31:28;98152.75;;;4.40;100.00
10720;BME280;5411;58.386;15.560;2023-02-01T09:33:57;98150.38;;;4.38;100.00
10720;BME280;5411;58.386;15.560;2023-02-01T09:36:25;98155.06;;;4.36;100.00
10720;BME280;5411;58.386;15.560;2023-02-01T09:38:57;98159.13;;;4.39;100.00
10720;BME280;5411;58.386;15.560;2023-02-01T09:41:41;98152.53;;;4.41;100.00
10720;BME280;5411;58.386;15.560;2023-02-01T09:44:21;98155.56;;;4.45;100.00
10720;BME280;5411;58.386;15.560;2023-02-01T09:47:14;98155.97;;;4.48;100.00
10720;BME280;5411;58.386;15.560;2023-02-01T09:49:49;98153.31;;;4.48;100.00
10720;BME280;5411;58.386;15.560;2023-02-01T09:52:27;98153.69;;;4.52;100.00
10720;BME280;5411;58.386;15.560;2023-02-01T09:55:00;98159.34;;;4.55;100.00
10720;BME280;5411;58.386;15.560;2023-02-01T09:57:41;98156.69;;;4.55;100.00
10720;BME280;5411;58.386;15.560;2023-02-01T10:00:17;98158.31;;;4.56;100.00
10720;BME280;5411;58.386;15.560;2023-02-01T10:02:50;98157.06;;;4.59;100.00
10720;BME280;5411;58.386;15.560;2023-02-01T10:08:19;98151.94;;;4.64;100.00
10720;BME280;5411;58.386;15.560;2023-02-01T10:10:57;98150.66;;;4.66;100.00
10720;BME280;5411;58.386;15.560;2023-02-01T10:13:39;98148.41;;;4.70;100.00
10720;BME280;5411;58.386;15.560;2023-02-01T10:16:20;98151.25;;;4.69;100.00
10720;BME280;5411;58.386;15.560;2023-02-01T10:21:54;98150.53;;;4.61;100.00
10720;BME280;5411;58.386;15.560;2023-02-01T10:24:39;98149.28;;;4.64;100.00
10720;BME280;5411;58.386;15.560;2023-02-01T10:27:14;98162.31;;;4.65;100.00
10720;BME280;5411;58.386;15.560;2023-02-01T10:29:48;98164.38;;;4.63;100.00
10720;BME280;5411;58.386;15.560;2023-02-01T10:32:21;98159.88;;;4.64;100.00
10720;BME280;5411;58.386;15.560;2023-02-01T10:34:57;98156.22;;;4.65;100.00
10720;BME280;5411;58.386;15.560;2023-02-01T10:37:28;98162.06;;;4.67;100.00
10720;BME280;5411;58.386;15.560;2023-02-01T10:40:02;98169.78;;;4.69;100.00
10720;BME280;5411;58.386;15.560;2023-02-01T10:42:32;98166.13;;;4.70;100.00
10720;BME280;5411;58.386;15.560;2023-02-01T10:45:04;98172.22;;;4.70;100.00
10720;BME280;5411;58.386;15.560;2023-02-01T10:47:34;98170.56;;;4.76;100.00
10720;BME280;5411;58.386;15.560;2023-02-01T10:50:13;98173.72;;;4.84;100.00
10720;BME280;5411;58.386;15.560;2023-02-01T10:52:48;98171.22;;;4.89;100.00
10720;BME280;5411;58.386;15.560;2023-02-01T10:55:33;98171.72;;;4.98;100.00
10720;BME280;5411;58.386;15.560;2023-02-01T10:58:06;98169.69;;;5.00;100.00
10720;BME280;5411;58.386;15.560;2023-02-01T11:00:43;98175.69;;;5.07;100.00
10720;BME280;5411;58.386;15.560;2023-02-01T11:06:24;98172.59;;;5.10;100.00
10720;BME280;5411;58.386;15.560;2023-02-01T11:08:55;98177.69;;;5.12;100.00
10720;BME280;5411;58.386;15.560;2023-02-01T11:11:24;98178.22;;;5.02;100.00
10720;BME280;5411;58.386;15.560;2023-02-01T11:13:56;98185.13;;;5.03;100.00
10720;BME280;5411;58.386;15.560;2023-02-01T11:16:35;98186.06;;;5.09;100.00
10720;BME280;5411;58.386;15.560;2023-02-01T11:19:05;98183.22;;;5.10;100.00
10720;BME280;5411;58.386;15.560;2023-02-01T11:21:41;98186.28;;;5.07;100.00
10720;BME280;5411;58.386;15.560;2023-02-01T11:24:19;98173.41;;;5.11;100.00
10720;BME280;5411;58.386;15.560;2023-02-01T11:26:50;98176.44;;;5.14;100.00
10720;BME280;5411;58.386;15.560;2023-02-01T11:29:21;98176.59;;;5.19;100.00
10720;BME280;5411;58.386;15.560;2023-02-01T11:31:57;98184.78;;;5.18;100.00
10720;BME280;5411;58.386;15.560;2023-02-01T11:34:32;98182.78;;;5.13;100.00
10720;BME280;5411;58.386;15.560;2023-02-01T11:37:04;98181.75;;;5.14;100.00
10720;BME280;5411;58.386;15.560;2023-02-01T11:39:38;98187.47;;;5.11;100.00
10720;BME280;5411;58.386;15.560;2023-02-01T11:42:13;98185.00;;;5.16;100.00
10720;BME280;5411;58.386;15.560;2023-02-01T11:44:43;98182.69;;;5.20;100.00
10720;BME280;5411;58.386;15.560;2023-02-01T11:47:22;98188.78;;;5.20;100.00
10720;BME280;5411;58.386;15.560;2023-02-01T11:49:52;98193.88;;;5.22;100.00
10720;BME280;5411;58.386;15.560;2023-02-01T11:52:41;98180.78;;;5.27;100.00
10720;BME280;5411;58.386;15.560;2023-02-01T11:58:17;98188.50;;;5.28;100.00
10720;BME280;5411;58.386;15.560;2023-02-01T12:01:03;98197.13;;;5.24;100.00
10720;BME280;5411;58.386;15.560;2023-02-01T12:04:04;98201.00;;;5.21;100.00
10720;BME280;5411;58.386;15.560;2023-02-01T12:06:46;98193.16;;;5.15;100.00
10720;BME280;5411;58.386;15.560;2023-02-01T12:09:34;98202.56;;;5.11;100.00
10720;BME280;5411;58.386;15.560;2023-02-01T12:12:14;98203.91;;;5.01;100.00
10720;BME280;5411;58.386;15.560;2023-02-01T12:15:04;98200.88;;;4.98;100.00
10720;BME280;5411;58.386;15.560;2023-02-01T12:17:45;98200.50;;;4.94;100.00
10720;BME280;5411;58.386;15.560;2023-02-01T12:20:33;98194.84;;;4.91;100.00
10720;BME280;5411;58.386;15.560;2023-02-01T12:23:20;98197.50;;;4.91;100.00
10720;BME280;5411;58.386;15.560;2023-02-01T12:26:03;98195.28;;;4.88;100.00
10720;BME280;5411;58.386;15.560;2023-02-01T12:28:46;98197.13;;;4.87;100.00
10720;BME280;5411;58.386;15.560;2023-02-01T12:31:47;98199.19;;;4.85;100.00
10720;BME280;5411;58.386;15.560;2023-02-01T12:34:32;98199.81;;;4.81;100.00
10720;BME280;5411;58.386;15.560;2023-02-01T12:37:09;98205.72;;;4.83;100.00
10720;BME280;5411;58.386;15.560;2023-02-01T12:39:47;98206.53;;;4.83;100.00
10720;BME280;5411;58.386;15.560;2023-02-01T12:42:23;98220.22;;;4.80;100.00
10720;BME280;5411;58.386;15.560;2023-02-01T12:44:56;98220.50;;;4.72;100.00
10720;BME280;5411;58.386;15.560;2023-02-01T12:47:34;98222.25;;;4.60;100.00
10720;BME280;5411;58.386;15.560;2023-02-01T12:50:08;98226.34;;;4.56;100.00
10720;BME280;5411;58.386;15.560;2023-02-01T12:52:45;98223.97;;;4.48;100.00
10720;BME280;5411;58.386;15.560;2023-02-01T12:55:19;98228.88;;;4.44;100.00
10720;BME280;5411;58.386;15.560;2023-02-01T12:57:53;98228.97;;;4.38;100.00
10720;BME280;5411;58.386;15.560;2023-02-01T13:00:29;98228.19;;;4.30;100.00
10720;BME280;5411;58.386;15.560;2023-02-01T13:03:05;98231.25;;;4.27;100.00
10720;BME280;5411;58.386;15.560;2023-02-01T13:05:46;98229.91;;;4.18;100.00
10720;BME280;5411;58.386;15.560;2023-02-01T13:08:22;98240.78;;;4.04;100.00
10720;BME280;5411;58.386;15.560;2023-02-01T13:10:56;98234.78;;;3.90;100.00
10720;BME280;5411;58.386;15.560;2023-02-01T13:13:32;98229.75;;;3.82;100.00
10720;BME280;5411;58.386;15.560;2023-02-01T13:16:14;98237.47;;;3.83;100.00
10720;BME280;5411;58.386;15.560;2023-02-01T13:18:49;98237.06;;;3.80;100.00
10720;BME280;5411;58.386;15.560;2023-02-01T13:21:21;98243.78;;;3.76;100.00
10720;BME280;5411;58.386;15.560;2023-02-01T13:23:52;98247.84;;;3.78;100.00
10720;BME280;5411;58.386;15.560;2023-02-01T13:26:21;98240.34;;;3.75;100.00
10720;BME280;5411;58.386;15.560;2023-02-01T13:28:53;98248.72;;;3.72;100.00
10720;BME280;5411;58.386;15.560;2023-02-01T13:31:41;98249.16;;;3.63;100.00
10720;BME280;5411;58.386;15.560;2023-02-01T13:34:40;98260.81;;;3.48;100.00
10720;BME280;5411;58.386;15.560;2023-02-01T13:37:27;98259.22;;;3.34;100.00
10720;BME280;5411;58.386;15.560;2023-02-01T13:40:09;98254.59;;;3.23;100.00
10720;BME280;5411;58.386;15.560;2023-02-01T13:42:48;98257.47;;;3.15;100.00
10720;BME280;5411;58.386;15.560;2023-02-01T13:45:22;98271.50;;;3.09;100.00
10720;BME280;5411;58.386;15.560;2023-02-01T13:47:54;98270.28;;;3.11;100.00
10720;BME280;5411;58.386;15.560;2023-02-01T13:50:27;98278.41;;;3.10;100.00
10720;BME280;5411;58.386;15.560;2023-02-01T13:52:59;98272.72;;;3.06;100.00